KESF/ESF METAR and TAF weather

Enter ICAO airport designator
Station Type Date Time Source
KESF METAR 2020/07/14 05:53 UTC NOAA

KESF 140553Z AUTO 00000KT 8SM CLR 27/26 A2990 RMK AO2 SLP122 T02720256 10350 20261 403670233 58000


Station Type Date Time Source
KESF Decoded METAR 2020/07/14 05:53 UTC NOAA

ALEXANDRIA ESLER RGNL AIRPORT , LA, United States (KESF) 31-24N 092-18W 28M
Jul 14, 2020 - 01:53 AM EDT / 2020.07.14 0553 UTC
Wind: Calm:0
Visibility: 8 mile(s):0
Sky conditions: clear
Temperature: 81.0 F (27.2 C)
Dew Point: 78.1 F (25.6 C)
Relative Humidity: 90%
Pressure (altimeter): 29.9 in. Hg (1012 hPa)
Pressure tendency: 0.00 inches (0.0 hPa) lower than three hours ago
ob: KESF 140553Z AUTO 00000KT 8SM CLR 27/26 A2990 RMK AO2 SLP122 T02720256 10350 20261 403670233 58000
cycle: 6

Station Type Date Time Source
KESF TAF UTC NOAA

Error!

Example: see airport list